createdAt,value
2019-02-26T00:08:53.627Z,13.1
2019-02-26T00:18:50.731Z,12.7
2019-02-26T00:28:49.932Z,12.7
2019-02-26T00:38:49.134Z,13.1
2019-02-26T00:48:48.336Z,12.9
2019-02-26T00:58:48.286Z,12.8
2019-02-26T01:08:47.120Z,13
2019-02-26T01:18:47.073Z,12.7
2019-02-26T01:28:48.059Z,12.5
2019-02-26T01:38:46.254Z,13.2
2019-02-26T01:48:43.546Z,12.9
2019-02-26T01:58:42.747Z,12.5
2019-02-26T02:08:43.924Z,13.2
2019-02-26T02:18:43.608Z,13.2
2019-02-26T02:28:40.353Z,12.5
2019-02-26T02:38:39.557Z,12.8
2019-02-26T02:48:38.758Z,13.2
2019-02-26T02:58:38.522Z,12.5
2019-02-26T03:08:39.291Z,12.5
2019-02-26T03:18:36.357Z,12.7
2019-02-26T03:28:37.461Z,13
2019-02-26T03:38:34.759Z,12.9
2019-02-26T03:48:33.960Z,12.9
2019-02-26T03:58:33.162Z,13.1
2019-02-26T04:08:32.362Z,12.8
2019-02-26T04:18:34.111Z,12.9
2019-02-26T04:30:22.564Z,13.1
2019-02-26T04:40:21.765Z,12.6
2019-02-26T04:50:23.899Z,12.5
2019-02-26T05:00:20.163Z,12.8
2019-02-26T05:10:20.471Z,12.9
2019-02-26T05:20:19.025Z,12.4
2019-02-26T05:30:20.010Z,12.6
2019-02-26T05:40:19.660Z,13.2
2019-02-26T05:50:16.762Z,13
2019-02-26T06:00:18.004Z,14.1
2019-02-26T06:10:14.926Z,14.3
2019-02-26T06:20:14.214Z,14
2019-02-26T06:30:13.490Z,14.3
2019-02-26T06:40:12.662Z,14.7
2019-02-26T06:50:13.080Z,14.4
2019-02-26T07:00:11.067Z,14.8
2019-02-26T07:10:13.740Z,14.2
2019-02-26T07:20:09.498Z,14.3
2019-02-26T07:30:08.681Z,14.1
2019-02-26T07:40:08.797Z,14.2
2019-02-26T07:50:09.172Z,14.3
2019-02-26T08:00:06.288Z,14.1
2019-02-26T08:10:08.032Z,14.7
2019-02-26T08:20:08.011Z,14.6
2019-02-26T08:30:06.808Z,14.7
2019-02-26T08:40:04.259Z,14.8
2019-02-26T08:50:04.640Z,14
2019-02-26T09:00:02.669Z,14.6
2019-02-26T09:10:01.924Z,14.1
2019-02-26T09:20:09.112Z,14.6
2019-02-26T09:30:00.279Z,14
2019-02-26T09:40:01.406Z,13.8
2019-02-26T09:49:58.687Z,13.9
2019-02-26T10:00:00.041Z,14.7
2019-02-26T10:09:57.090Z,14
2019-02-26T10:19:56.934Z,14.4
2019-02-26T10:29:55.496Z,14.3
2019-02-26T10:39:55.046Z,14.7
2019-02-26T10:49:56.296Z,14.7
2019-02-26T10:59:56.748Z,14.7
2019-02-26T11:09:53.541Z,14.7
2019-02-26T11:19:52.971Z,14.2
2019-02-26T11:29:51.962Z,14.4
2019-02-26T11:39:49.919Z,13.8
2019-02-26T11:49:49.121Z,14.1
2019-02-26T11:59:48.324Z,13.9
2019-02-26T12:09:47.526Z,14.4
2019-02-26T12:19:48.560Z,14.3
2019-02-26T12:29:48.264Z,14.8
2019-02-26T12:39:47.316Z,14.4
2019-02-26T12:49:45.154Z,14.7
2019-02-26T12:59:43.542Z,13.8
2019-02-26T13:09:47.765Z,13.8
2019-02-26T13:20:59.266Z,14.2
2019-02-26T13:30:58.037Z,14
2019-02-26T13:42:03.459Z,14.1
2019-02-26T13:51:57.031Z,13.5
2019-02-26T14:01:56.285Z,13.7
2019-02-26T14:11:55.438Z,12.5
2019-02-26T14:21:54.641Z,13.2
2019-02-26T14:31:53.844Z,12.8
2019-02-26T14:41:53.048Z,13.1
2019-02-26T14:51:52.252Z,13.2
2019-02-26T15:01:51.459Z,12.5
2019-02-26T15:11:50.710Z,12.8
2019-02-26T15:21:49.864Z,12.5
2019-02-26T15:31:49.067Z,12.4
2019-02-26T15:41:50.527Z,13.3
2019-02-26T15:51:48.737Z,13.1
2019-02-26T16:01:46.683Z,12.9
2019-02-26T16:11:45.935Z,12.8
2019-02-26T16:21:45.094Z,12.5
2019-02-26T16:31:44.343Z,13.2
2019-02-26T16:41:43.502Z,12.8
2019-02-26T16:51:42.702Z,12.8
2019-02-26T17:01:41.903Z,12.7
2019-02-26T17:11:41.662Z,12.5
2019-02-26T17:21:40.313Z,13.2
2019-02-26T17:31:39.520Z,13
2019-02-26T17:41:38.726Z,13.1
2019-02-26T17:51:37.979Z,13
2019-02-26T18:01:37.133Z,13
2019-02-26T18:11:36.601Z,12.3
2019-02-26T18:21:35.596Z,13.2
2019-02-26T18:31:34.830Z,12.5
2019-02-26T18:41:35.237Z,12.7
2019-02-26T18:51:33.611Z,12.7
2019-02-26T19:01:32.353Z,12.8
2019-02-26T19:11:31.606Z,13
2019-02-26T19:21:30.833Z,12.4
2019-02-26T19:31:29.965Z,12.4
2019-02-26T19:41:29.221Z,13
2019-02-26T19:51:28.428Z,12.5
2019-02-26T20:01:27.631Z,13
2019-02-26T20:11:26.835Z,12.5
2019-02-26T20:21:25.992Z,12.5
2019-02-26T20:31:25.192Z,12.5
2019-02-26T20:41:24.396Z,12.5
2019-02-26T20:51:26.804Z,12.9
2019-02-26T21:01:22.802Z,13.1
2019-02-26T21:10:16.095Z,12.5
2019-02-26T21:20:15.167Z,13
2019-02-26T21:30:14.296Z,13.2
2019-02-26T21:40:15.807Z,12.9
2019-02-26T21:50:13.364Z,12.5
2019-02-26T22:00:11.904Z,12.6
2019-02-26T22:10:11.121Z,13.2
2019-02-26T22:20:21.542Z,13.1
2019-02-26T22:30:09.693Z,12.7
2019-02-26T22:40:09.031Z,12.7
2019-02-26T22:50:08.262Z,12.5
2019-02-26T23:00:07.545Z,13.2
2019-02-26T23:10:06.841Z,13
2019-02-26T23:20:07.535Z,12.8
2019-02-26T23:30:05.193Z,12.9
2019-02-26T23:40:04.395Z,12.5
2019-02-26T23:50:03.605Z,12.5
